Rechercher aéroport 
image banner adimage banner adimage banner ad
image banner ad

KTSP - Tehachapi Muni

Situé à Tehachapi, United States

ICAO - TSP, IATA -

Données fournies par Airmate  

Information générale

Coordonnées: N35°8'6" W118°26'21"
Élévation : 4001 feet MSL.
Variation magnétique : 14° East
Voir autres Aéroports à California

Données opérationnelles

Special qualification required
Heure actuelle UTC:
Heure actuelle locale:
Météo
METAR: KTSP 300135Z AUTO 32013KT 10SM CLR 30/08 A3005 RMK AO2
Voir NOTAMs / SUP AIP / TFR affectant cet aéroport [VIEW]
Fréquences de communication: [VIEW]

Pistes:

Identifiant RWYQFULongueur (ft)Largeur (ft)SurfaceLDA (ft)
11124°404075ASPH
29304°404075ASPH

Coordonnées de l'aéroport

Adresse: Tehachapi United States

Vue satellite de KTSP